Hoosick Falls, NY

12:50 PM EDT on May 29, 2015 (GMT -0400)
Southwest Hoosick | | Change Station
CLOSE
Current Station
Personal Weather Station
Location: Hoosick Falls, NY
Elevation: 909 ft
Nearby Weather Stations

Elev 909 ft 42.87 °N, 73.41 °W | Updated 25 minutes ago

Clear
Clear
77.6 °F
Feels Like 79 °F
N
4.5
Wind Variable Wind from SE
Gusts 12.1 mph

Today
High -- | Low -- °F
--% Chance of Precip.
Yesterday
High -- | Low -- °F
Precip. -- in
5:19 AM 8:22 PM
Waxing Gibbous, 84% visible
Pressure 30.27 in
Visibility 10.0 miles
Clouds Few 3700 ft
Heat Index 79 °F
Dew Point 54 °F
Humidity 44%
Rainfall 0.00 in
Snow Depth Not available.
UV 11 out of 12
Pollen 9.80 out of 12
Air Quality Not available.
Flu Activity Widespread
METAR KDDH 291554Z AUTO VRB03KT 10SM FEW037 24/14 A3028 RMK AO2 SLP248 T02440144

More Conditions Fewer Conditions

Pressure 30.27 in
Visibility 10.0 miles
Clouds Few 3700 ft
Heat Index 79 °F
Dew Point 54 °F
Humidity 44%
Rainfall 0.00 in
Snow Depth Not available.
UV 11 out of 12
Pollen 9.80 out of 12
Air Quality Not available.
Flu Activity Widespread
METAR KDDH 291554Z AUTO VRB03KT 10SM FEW037 24/14 A3028 RMK AO2 SLP248 T02440144

More Conditions Fewer Conditions

10-Day Weather Forecast

Almanac

Astronomy

May. 29, 2015 Rise Set
Actual Time
Civil Twilight
Nautical Twilight
Astronomical Twilight
Moon
Length of Visible Light
Length of Day
Tomorrow will be .
, % of the Moon is Illuminated

Today's Extremes

State Highs State Lows

Community

WunderPhotos

Upload Photos

1,825,301 photos uploaded!

WunderBlogs® & News

Nearby

Air Quality

  Air Quality AQ Index Pollutant
Not available.

Snow Depth

Station Depth Elevation

Earthquake Activity

City Distance Mag. Time & Date
Minimum magnitude displayed is 2.5.

Coastal Water Temperatures

Place Temperature

Stations

Nearby Weather Stations

Station Location Temp. Windchill Dew Point Humidity Wind Precip. Elev Updated Type